Time;durP1;ratioP1;P1;durP2;ratioP2;P2;SDS_P1;SDS_P2;PMS_P1;PMS_P2;Temp;Humidity;BMP_temperature;BMP_pressure;BME280_temperature;BME280_humidity;BME280_pressure;Samples;Min_cycle;Max_cycle;Signal;HPM_P1;HPM_P2
2021/01/02 00:00:11;;;;;;;103.60;43.70;;;;;;;-3.00;71.74;96878.95;1740152;81;25811;-82
2021/01/02 00:02:48;;;;;;;107.30;46.65;;;;;;;-2.98;71.72;96879.16;1761011;81;25917;-82
2021/01/02 00:05:23;;;;;;;124.60;54.08;;;;;;;-3.04;71.67;96886.83;1766196;81;28529;-82
2021/01/02 00:08:08;;;;;;;136.10;56.20;;;;;;;-3.07;71.76;96889.25;1746344;81;26101;-81
2021/01/02 00:10:52;;;;;;;233.55;77.53;;;;;;;-3.04;71.84;96892.94;1759670;80;25852;-82
2021/01/02 00:14:02;;;;;;;240.55;75.78;;;;;;;-3.05;71.72;96893.08;1738668;81;25975;-81
2021/01/02 00:16:35;;;;;;;198.35;70.85;;;;;;;-3.06;71.80;96894.88;1758606;81;26204;-81
2021/01/02 00:19:25;;;;;;;184.57;68.05;;;;;;;-3.03;71.87;96898.57;1749468;81;27545;-81
2021/01/02 00:22:12;;;;;;;123.33;48.40;;;;;;;-2.99;71.86;96903.06;1740174;80;25742;-82
2021/01/02 00:24:57;;;;;;;121.37;48.50;;;;;;;-3.01;71.87;96910.29;1750887;81;26474;-81
2021/01/02 00:28:07;;;;;;;129.20;48.48;;;;;;;-3.04;71.88;96903.98;1739637;81;25769;-81
2021/01/02 00:31:00;;;;;;;141.73;54.15;;;;;;;-3.06;71.92;96907.25;1733910;81;25905;-81
2021/01/02 00:33:52;;;;;;;103.97;42.25;;;;;;;-3.03;72.01;96906.98;1742121;81;27502;-81
2021/01/02 00:36:33;;;;;;;84.22;36.15;;;;;;;-3.09;72.12;96904.88;1744293;81;25744;-81
2021/01/02 00:39:01;;;;;;;70.85;29.87;;;;;;;-3.10;72.36;96900.56;1731849;81;26398;-82
2021/01/02 00:41:28;;;;;;;80.85;31.55;;;;;;;-3.10;72.40;96909.81;1730848;81;25448;-81
2021/01/02 00:43:57;;;;;;;72.08;31.93;;;;;;;-3.14;72.57;96908.44;1730876;81;25889;-81
2021/01/02 00:46:24;;;;;;;66.92;30.00;;;;;;;-3.14;72.70;96914.52;1730900;81;27372;-81
2021/01/02 00:48:51;;;;;;;62.38;27.40;;;;;;;-3.10;72.75;96914.61;1730875;81;25748;-81
2021/01/02 00:51:20;;;;;;;69.00;27.75;;;;;;;-3.06;72.75;96908.09;1730968;81;25791;-81
2021/01/02 00:54:02;;;;;;;64.17;24.67;;;;;;;-3.03;72.83;96912.26;1739841;81;26462;-81
2021/01/02 00:56:35;;;;;;;43.87;20.45;;;;;;;-3.08;72.85;96902.59;1753427;81;25702;-81
2021/01/02 00:59:46;;;;;;;45.85;20.30;;;;;;;-3.08;72.99;96908.70;1730973;81;28565;-82
2021/01/02 01:02:38;;;;;;;42.80;20.88;;;;;;;-3.05;73.12;96912.88;1730189;81;26750;-82
2021/01/02 01:05:08;;;;;;;61.13;25.45;;;;;;;-3.02;73.31;96917.38;1747490;81;25745;-82
2021/01/02 01:07:38;;;;;;;66.02;26.65;;;;;;;-2.98;73.21;96916.62;1743614;81;25664;-82
2021/01/02 01:10:10;;;;;;;52.78;23.07;;;;;;;-2.95;73.13;96911.06;1730853;81;25364;-82
2021/01/02 01:12:43;;;;;;;56.05;24.37;;;;;;;-2.97;73.09;96915.65;1731100;81;27505;-81
2021/01/02 01:15:12;;;;;;;56.85;22.60;;;;;;;-2.97;73.07;96915.65;1730830;81;26022;-83
2021/01/02 01:17:48;;;;;;;49.35;21.27;;;;;;;-2.97;73.08;96920.45;1730851;81;25846;-83
2021/01/02 01:20:18;;;;;;;50.38;21.60;;;;;;;-2.91;73.21;96910.66;1731844;81;25763;-82
2021/01/02 01:22:53;;;;;;;54.88;23.60;;;;;;;-2.86;73.21;96924.75;1736981;81;25800;-82
2021/01/02 01:25:50;;;;;;;50.48;22.73;;;;;;;-2.80;73.22;96918.08;1729740;81;28595;-83
2021/01/02 01:28:19;;;;;;;54.18;22.48;;;;;;;-2.81;73.07;96918.57;1730654;81;26125;-82
2021/01/02 01:30:51;;;;;;;53.15;24.15;;;;;;;-2.78;73.06;96914.33;1723003;81;26273;-82
2021/01/02 01:33:27;;;;;;;60.07;28.07;;;;;;;-2.74;73.12;96918.34;1741421;81;26590;-82
2021/01/02 01:36:13;;;;;;;57.30;26.93;;;;;;;-2.70;73.11;96910.48;1836013;78;35183;-82
2021/01/02 01:38:43;;;;;;;58.80;25.27;;;;;;;-2.77;73.02;96897.48;1774510;77;25819;-81
2021/01/02 01:41:16;;;;;;;57.23;24.25;;;;;;;-2.77;72.99;96900.13;1784366;77;28373;-81
2021/01/02 01:44:07;;;;;;;54.27;23.25;;;;;;;-2.85;73.00;96898.68;1813879;77;26184;-81
2021/01/02 01:46:53;;;;;;;56.90;22.35;;;;;;;-2.83;73.13;96908.63;1816231;77;25758;-81
2021/01/02 01:52:40;;;;;;;47.30;22.58;;;;;;;-2.64;73.30;96899.83;1883727;74;35294;-81
2021/01/02 01:55:09;;;;;;;52.98;24.20;;;;;;;-2.69;73.34;96906.87;1833039;75;25756;-81
2021/01/02 01:57:40;;;;;;;58.10;25.45;;;;;;;-2.63;73.42;96898.36;1812007;75;27635;-81
2021/01/02 02:00:17;;;;;;;51.28;24.50;;;;;;;-2.56;73.43;96907.41;1831347;75;26193;-81
2021/01/02 02:02:56;;;;;;;48.05;21.15;;;;;;;-2.50;73.45;96906.47;1823769;77;25796;-82
2021/01/02 02:05:25;;;;;;;49.73;22.20;;;;;;;-2.44;73.46;96892.70;1853441;75;26472;-81
2021/01/02 02:08:08;;;;;;;48.80;21.25;;;;;;;-2.37;73.46;96909.64;1849275;75;25775;-81
2021/01/02 02:10:40;;;;;;;48.00;21.70;;;;;;;-2.35;73.49;96899.77;1838687;76;28436;-81
2021/01/02 02:13:15;;;;;;;55.73;23.60;;;;;;;-2.30;73.52;96906.30;1836719;75;25717;-81
2021/01/02 02:15:54;;;;;;;61.30;26.45;;;;;;;-2.24;73.50;96891.66;1838643;77;25871;-81
2021/01/02 02:18:27;;;;;;;58.42;25.30;;;;;;;-2.20;73.50;96900.98;1834357;75;25693;-81
2021/01/02 02:21:00;;;;;;;52.08;24.45;;;;;;;-2.15;73.53;96903.17;1828989;75;26329;-81
2021/01/02 02:23:32;;;;;;;50.78;22.70;;;;;;;-2.15;73.48;96890.78;1823810;75;28498;-80
2021/01/02 02:26:08;;;;;;;48.00;22.45;;;;;;;-2.12;73.47;96903.72;1855456;75;25304;-81
2021/01/02 02:28:50;;;;;;;47.62;22.52;;;;;;;-2.08;73.49;96902.46;1819920;77;26290;-80
2021/01/02 02:31:19;;;;;;;43.13;22.98;;;;;;;-2.03;73.49;96904.66;1827716;77;25786;-81
2021/01/02 02:33:54;;;;;;;45.30;21.12;;;;;;;-2.02;73.51;96908.97;1823290;75;25873;-80
2021/01/02 02:36:22;;;;;;;40.28;18.95;;;;;;;-2.00;73.60;96909.17;1850282;77;27488;-80
2021/01/02 02:38:50;;;;;;;34.30;16.15;;;;;;;-1.93;73.60;96908.08;1842628;75;25777;-81
2021/01/02 02:41:23;;;;;;;38.15;16.40;;;;;;;-1.90;73.57;96909.95;1837913;76;25855;-80
2021/01/02 02:43:54;;;;;;;35.73;16.67;;;;;;;-1.84;73.63;96909.39;1814396;75;25312;-82
2021/01/02 02:46:23;;;;;;;28.90;12.78;;;;;;;-1.79;73.66;96911.58;1811155;75;25737;-80
2021/01/02 02:48:55;;;;;;;38.75;18.30;;;;;;;-1.73;73.70;96903.55;1813437;75;27550;-81
2021/01/02 02:51:24;;;;;;;45.25;20.08;;;;;;;-1.66;73.73;96911.23;1838221;75;25772;-81
2021/01/02 02:53:51;;;;;;;43.02;18.50;;;;;;;-1.65;73.68;96920.84;1836312;76;25765;-79
2021/01/02 02:56:19;;;;;;;36.88;16.32;;;;;;;-1.63;73.63;96909.62;1845538;76;25810;-81
2021/01/02 02:58:46;;;;;;;29.23;13.83;;;;;;;-1.61;73.58;96917.77;1829587;75;25880;-80
2021/01/02 03:01:13;;;;;;;34.27;16.10;;;;;;;-1.63;73.58;96918.88;1845567;75;28542;-80
2021/01/02 03:03:41;;;;;;;46.48;21.05;;;;;;;-1.65;73.61;96911.58;1841343;75;25690;-80
2021/01/02 03:06:09;;;;;;;43.28;19.50;;;;;;;-1.61;73.64;96919.09;1855204;76;25743;-82
2021/01/02 03:08:37;;;;;;;36.15;18.30;;;;;;;-1.57;73.60;96907.72;1835588;75;26155;-81
2021/01/02 03:11:04;;;;;;;36.03;16.10;;;;;;;-1.55;73.59;96901.77;1851651;75;26048;-79
2021/01/02 03:13:44;;;;;;;39.03;18.25;;;;;;;-1.53;73.50;96907.75;1835573;76;28448;-83
2021/01/02 03:16:11;;;;;;;32.17;16.62;;;;;;;-1.54;73.48;96906.91;1851716;76;26289;-80
2021/01/02 03:18:38;;;;;;;37.98;18.30;;;;;;;-1.60;73.37;96906.69;1851652;76;25824;-80
2021/01/02 03:21:05;;;;;;;44.18;21.02;;;;;;;-1.63;73.42;96913.59;1839554;76;25943;-80
2021/01/02 03:23:46;;;;;;;39.15;18.40;;;;;;;-1.63;73.46;96906.97;1828953;76;25876;-80
2021/01/02 03:26:16;;;;;;;38.02;17.87;;;;;;;-1.61;73.49;96913.80;1841536;75;27498;-79
2021/01/02 03:28:53;;;;;;;45.85;20.97;;;;;;;-1.59;73.45;96920.27;1831558;76;26528;-80
2021/01/02 03:31:21;;;;;;;38.70;21.17;;;;;;;-1.61;73.33;96922.22;1828890;75;25701;-80
2021/01/02 03:33:49;;;;;;;41.37;19.27;;;;;;;-1.61;73.37;96929.67;1856582;76;25669;-81
2021/01/02 03:36:16;;;;;;;47.83;23.52;;;;;;;-1.61;73.32;96935.45;1840779;76;25885;-80
2021/01/02 03:38:52;;;;;;;46.58;23.25;;;;;;;-1.63;73.29;96941.38;1852783;76;28364;-80
2021/01/02 03:41:20;;;;;;;49.55;22.22;;;;;;;-1.62;73.25;96928.49;1838593;75;25761;-80
2021/01/02 03:43:47;;;;;;;45.60;21.15;;;;;;;-1.63;73.22;96929.47;1850080;76;25303;-80
2021/01/02 03:46:14;;;;;;;46.68;22.58;;;;;;;-1.64;73.21;96934.42;1830740;75;25724;-79
2021/01/02 03:48:42;;;;;;;58.33;25.75;;;;;;;-1.70;73.22;96927.91;1841587;76;25756;-80
2021/01/02 03:51:09;;;;;;;57.17;24.50;;;;;;;-1.71;73.30;96941.29;1839265;76;27550;-80
2021/01/02 03:53:37;;;;;;;48.50;23.47;;;;;;;-1.68;73.40;96935.68;1832153;75;25962;-80
2021/01/02 03:56:05;;;;;;;56.60;26.40;;;;;;;-1.67;73.29;96938.67;1857061;76;25733;-83
2021/01/02 03:58:32;;;;;;;51.35;24.82;;;;;;;-1.70;73.21;96942.96;1838477;75;25728;-80
2021/01/02 04:00:59;;;;;;;65.75;27.48;;;;;;;-1.77;73.17;96932.59;1835646;75;25872;-81
2021/01/02 04:03:27;;;;;;;64.00;25.90;;;;;;;-1.83;73.20;96933.55;1844368;76;27545;-80
2021/01/02 04:05:54;;;;;;;69.03;29.72;;;;;;;-1.81;73.38;96936.85;1828795;75;25638;-81
2021/01/02 04:08:21;;;;;;;68.37;29.90;;;;;;;-1.87;73.37;96922.90;1853211;75;26250;-80
2021/01/02 04:10:49;;;;;;;70.90;27.98;;;;;;;-1.85;73.42;96935.50;1843722;76;25753;-81
2021/01/02 04:13:16;;;;;;;63.17;27.27;;;;;;;-1.86;73.40;96935.64;1856543;75;25931;-80
2021/01/02 04:15:43;;;;;;;71.75;29.02;;;;;;;-1.87;73.32;96940.09;1840518;76;27689;-80
2021/01/02 04:18:11;;;;;;;66.05;28.75;;;;;;;-1.92;73.27;96935.72;1846836;75;25779;-80
2021/01/02 04:20:38;;;;;;;63.45;27.52;;;;;;;-1.99;73.28;96935.97;1842442;76;25815;-80
2021/01/02 04:23:05;;;;;;;57.95;27.02;;;;;;;-2.04;73.42;96936.87;1828886;75;25884;-81
2021/01/02 04:25:33;;;;;;;67.62;27.30;;;;;;;-2.00;73.41;96943.55;1840946;75;25769;-80
2021/01/02 04:28:00;;;;;;;65.03;28.83;;;;;;;-2.10;73.27;96936.15;1828831;75;28496;-82
2021/01/02 04:30:27;;;;;;;63.83;28.45;;;;;;;-2.19;73.34;96937.86;1844767;75;26478;-80
2021/01/02 04:32:54;;;;;;;72.87;29.30;;;;;;;-2.19;73.48;96937.02;1841092;75;25669;-80
2021/01/02 04:35:22;;;;;;;67.95;29.50;;;;;;;-2.19;73.52;96933.05;1835565;76;25757;-80
2021/01/02 04:37:49;;;;;;;74.62;30.12;;;;;;;-2.24;73.52;96933.96;1841248;76;25780;-80
2021/01/02 04:40:17;;;;;;;70.20;27.37;;;;;;;-2.32;73.55;96935.17;1846801;75;28460;-80
2021/01/02 04:42:44;;;;;;;63.20;25.57;;;;;;;-2.36;73.81;96935.94;1850076;76;26193;-81
2021/01/02 04:45:12;;;;;;;64.35;27.67;;;;;;;-2.38;73.99;96929.95;1844461;76;25737;-81
2021/01/02 04:47:39;;;;;;;70.92;28.45;;;;;;;-2.36;74.05;96929.81;1854948;76;25801;-81
2021/01/02 04:50:09;;;;;;;61.42;26.85;;;;;;;-2.31;74.10;96927.59;1862769;75;25786;-82
2021/01/02 04:52:36;;;;;;;62.95;25.32;;;;;;;-2.26;74.11;96932.78;1841426;75;27533;-82
2021/01/02 04:55:07;;;;;;;65.80;26.85;;;;;;;-2.23;74.09;96941.75;1811202;75;26140;-81
2021/01/02 04:57:36;;;;;;;64.37;27.87;;;;;;;-2.21;74.04;96943.77;1815413;75;25837;-82
2021/01/02 05:00:08;;;;;;;54.88;24.90;;;;;;;-2.19;73.97;96951.56;1845538;75;25715;-83
2021/01/02 05:02:39;;;;;;;59.05;25.15;;;;;;;-2.21;73.87;96957.48;1845126;75;25731;-82
2021/01/02 05:05:07;;;;;;;54.40;23.55;;;;;;;-2.20;73.92;96963.95;1827410;75;28468;-82
2021/01/02 05:07:35;;;;;;;56.30;23.77;;;;;;;-2.18;73.87;96961.17;1848585;75;25749;-82
2021/01/02 05:10:04;;;;;;;52.98;23.02;;;;;;;-2.26;73.77;96955.25;1848582;75;25710;-82
2021/01/02 05:12:34;;;;;;;53.23;22.75;;;;;;;-2.26;73.79;96961.03;1853986;76;25867;-82
2021/01/02 05:15:12;;;;;;;62.23;26.00;;;;;;;-2.23;73.82;96969.52;1842268;77;25673;-82
2021/01/02 05:17:41;;;;;;;70.28;27.90;;;;;;;-2.32;73.67;96974.83;1819501;77;27495;-84
2021/01/02 05:20:14;;;;;;;61.77;25.50;;;;;;;-2.36;73.75;96966.83;1817892;77;25721;-83
2021/01/02 05:22:43;;;;;;;71.37;27.90;;;;;;;-2.37;73.75;96964.67;1811323;77;26298;-82
2021/01/02 05:25:20;;;;;;;68.90;27.25;;;;;;;-2.38;73.82;96976.70;1833687;75;25684;-82
2021/01/02 05:27:52;;;;;;;60.98;26.62;;;;;;;-2.39;73.84;96972.39;1832325;75;26336;-82
2021/01/02 05:30:26;;;;;;;68.33;26.33;;;;;;;-2.39;73.88;96973.71;1832964;75;27491;-82
2021/01/02 05:33:08;;;;;;;64.50;28.12;;;;;;;-2.39;73.83;96971.06;1832451;75;26110;-82
2021/01/02 05:35:46;;;;;;;72.03;29.67;;;;;;;-2.48;73.81;96976.72;1830955;77;25896;-82
2021/01/02 05:38:20;;;;;;;67.55;31.55;;;;;;;-2.52;73.82;96979.77;1835660;75;25773;-83
2021/01/02 05:40:59;;;;;;;79.42;35.92;;;;;;;-2.58;73.83;96978.06;1846194;76;25709;-83
2021/01/02 05:43:29;;;;;;;69.58;31.55;;;;;;;-2.63;73.80;96982.08;1822103;75;27491;-82
2021/01/02 05:45:57;;;;;;;67.50;29.98;;;;;;;-2.70;73.87;96980.50;1856558;75;25698;-83
2021/01/02 05:48:27;;;;;;;66.95;28.27;;;;;;;-2.71;73.98;96981.47;1849279;75;25771;-83
2021/01/02 05:51:00;;;;;;;64.32;25.30;;;;;;;-2.67;74.13;96986.83;1823077;75;25747;-82
2021/01/02 05:53:34;;;;;;;59.60;26.02;;;;;;;-2.64;74.12;96985.20;1793629;78;25711;-83
2021/01/02 05:56:13;;;;;;;66.95;27.20;;;;;;;-2.62;74.11;96972.70;1790074;78;27475;-83
2021/01/02 05:58:47;;;;;;;54.95;25.02;;;;;;;-2.55;74.21;96973.83;1790030;78;25751;-83
2021/01/02 06:01:19;;;;;;;62.40;24.60;;;;;;;-2.57;74.06;96992.95;1789953;78;25440;-83
2021/01/02 06:03:50;;;;;;;57.78;23.87;;;;;;;-2.63;74.07;96989.52;1790189;78;25708;-82
2021/01/02 06:06:20;;;;;;;58.40;26.48;;;;;;;-2.64;74.14;96987.85;1812828;77;25804;-83
2021/01/02 06:08:51;;;;;;;57.43;25.50;;;;;;;-2.61;74.10;96989.39;1789964;78;28682;-83
2021/01/02 06:11:22;;;;;;;50.75;23.47;;;;;;;-2.59;74.04;96994.89;1812714;78;25658;-83
2021/01/02 06:13:52;;;;;;;56.77;24.60;;;;;;;-2.65;73.92;96996.75;1789998;78;25842;-82
2021/01/02 06:16:20;;;;;;;63.33;24.80;;;;;;;-2.70;74.00;97000.80;1789949;78;26160;-83
2021/01/02 06:18:48;;;;;;;52.17;25.32;;;;;;;-2.77;73.93;96991.74;1790082;78;25700;-82
2021/01/02 06:21:18;;;;;;;54.35;23.75;;;;;;;-2.81;73.98;97000.45;1812803;78;28469;-83
2021/01/02 06:23:48;;;;;;;55.95;25.50;;;;;;;-2.79;74.02;97006.92;1789842;78;25732;-84
2021/01/02 06:26:17;;;;;;;56.20;27.80;;;;;;;-2.86;73.99;97003.15;1789940;78;25744;-83
2021/01/02 06:28:46;;;;;;;61.05;30.15;;;;;;;-2.89;74.12;97004.25;1790046;78;25822;-84
2021/01/02 06:31:16;;;;;;;57.53;30.08;;;;;;;-2.87;74.22;97003.63;1789973;78;25776;-82
2021/01/02 06:33:49;;;;;;;60.73;28.27;;;;;;;-2.82;74.20;97004.06;1785759;78;27475;-83
2021/01/02 06:36:36;;;;;;;64.22;29.82;;;;;;;-2.80;74.17;97007.89;1789886;78;26118;-83
2021/01/02 06:39:28;;;;;;;53.40;28.62;;;;;;;-2.78;74.14;97013.39;1790142;78;25702;-83
2021/01/02 06:41:56;;;;;;;54.88;27.77;;;;;;;-2.79;74.13;97014.36;1804203;78;25716;-82
2021/01/02 06:44:44;;;;;;;56.95;29.52;;;;;;;-2.81;74.15;97013.66;1821109;78;26417;-83
2021/01/02 06:47:16;;;;;;;52.00;26.85;;;;;;;-2.82;74.18;97012.47;1790156;78;27438;-83
2021/01/02 06:49:44;;;;;;;53.30;26.45;;;;;;;-2.85;74.17;97010.94;1790223;78;32951;-83
2021/01/02 06:52:31;;;;;;;62.43;32.73;;;;;;;-2.82;74.23;97011.99;1794521;78;26233;-83
2021/01/02 06:55:24;;;;;;;63.45;33.73;;;;;;;-2.82;74.30;97004.06;1830737;75;26690;-83
2021/01/02 06:57:57;;;;;;;71.15;39.27;;;;;;;-2.77;74.39;97005.78;1820776;75;25903;-83
2021/01/02 07:00:28;;;;;;;99.92;47.30;;;;;;;-2.85;74.32;97006.98;1822180;77;27498;-83
2021/01/02 07:02:56;;;;;;;;;;;;;;;-2.94;74.38;97003.84;1813934;75;25729;-83
2021/01/02 07:05:47;;;;;;;127.32;52.78;;;;;;;-2.98;74.58;97005.09;1836516;75;25730;-83
2021/01/02 07:08:44;;;;;;;126.10;51.40;;;;;;;-3.03;74.68;96996.27;1856802;75;26378;-83
2021/01/02 07:11:47;;;;;;;118.28;49.15;;;;;;;-3.08;74.70;96997.64;1850519;75;25771;-83
2021/01/02 07:14:19;;;;;;;93.62;46.05;;;;;;;-3.08;74.82;96996.32;1811303;77;27050;-83
2021/01/02 07:17:05;;;;;;;105.70;48.50;;;;;;;-3.06;74.94;97002.30;1821029;76;25842;-83
2021/01/02 07:19:40;;;;;;;108.97;50.63;;;;;;;-3.01;75.03;97000.07;1819656;75;25820;-83
2021/01/02 07:22:24;;;;;;;111.28;50.67;;;;;;;-2.95;75.01;97004.81;1816458;77;26602;-83
2021/01/02 07:25:05;;;;;;;113.30;53.17;;;;;;;-2.94;74.97;97013.09;1835266;75;25705;-85
2021/01/02 07:27:40;;;;;;;112.03;52.08;;;;;;;-2.83;75.02;97009.48;1829213;75;27451;-84
2021/01/02 07:30:13;;;;;;;104.80;51.58;;;;;;;-2.79;74.92;97014.84;1846931;75;25715;-83
2021/01/02 07:32:44;;;;;;;99.37;48.20;;;;;;;-2.76;74.95;97011.42;1846204;75;26602;-82
2021/01/02 07:35:15;;;;;;;131.78;60.67;;;;;;;-2.77;75.00;97022.96;1843398;75;25689;-83
2021/01/02 07:37:45;;;;;;;163.35;70.28;;;;;;;-2.73;75.11;97021.72;1832178;77;25338;-84
2021/01/02 07:40:18;;;;;;;146.37;63.68;;;;;;;-2.65;75.18;97031.10;1845702;75;29506;-84
2021/01/02 07:42:52;;;;;;;145.07;60.25;;;;;;;-2.62;75.19;97033.47;1828683;76;25676;-83
2021/01/02 07:45:26;;;;;;;136.92;61.48;;;;;;;-2.58;75.21;97036.20;1841876;75;25647;-83
2021/01/02 07:47:56;;;;;;;143.87;61.28;;;;;;;-2.54;75.24;97030.96;1856596;77;26613;-84
2021/01/02 07:50:28;;;;;;;137.50;62.30;;;;;;;-2.43;75.30;97030.50;1845784;75;25766;-84
2021/01/02 07:53:00;;;;;;;170.47;70.12;;;;;;;-2.35;75.27;97034.09;1835714;76;27490;-83
2021/01/02 07:55:32;;;;;;;166.10;69.75;;;;;;;-2.33;75.17;97040.08;1833216;75;26120;-83
2021/01/02 07:58:03;;;;;;;154.07;65.40;;;;;;;-2.27;75.16;97039.98;1851171;75;25737;-83
2021/01/02 08:00:30;;;;;;;170.17;70.75;;;;;;;-2.24;75.18;97047.65;1855131;75;25723;-82
2021/01/02 08:03:06;;;;;;;187.37;76.30;;;;;;;-2.30;75.17;97051.70;1829981;76;25927;-82
2021/01/02 08:05:34;;;;;;;197.70;83.52;;;;;;;-2.23;75.28;97036.94;1828968;77;28470;-83
2021/01/02 08:08:05;;;;;;;203.88;85.22;;;;;;;-2.15;75.32;97030.09;1858217;75;26201;-82
2021/01/02 08:10:33;;;;;;;205.35;84.55;;;;;;;-2.07;75.34;97024.47;1871746;76;26214;-82
2021/01/02 08:13:01;;;;;;;218.05;96.20;;;;;;;-2.06;75.34;97029.27;1839432;75;25516;-83
2021/01/02 08:15:31;;;;;;;213.03;93.62;;;;;;;-2.05;75.38;97025.65;1851612;75;25800;-84
2021/01/02 08:18:08;;;;;;;221.05;98.55;;;;;;;-1.98;75.43;97020.13;1832686;75;27619;-82
2021/01/02 08:20:37;;;;;;;243.73;100.85;;;;;;;-1.95;75.44;97018.03;1840388;75;25724;-83
2021/01/02 08:23:09;;;;;;;227.40;98.12;;;;;;;-1.97;75.52;97026.59;1836997;75;25767;-82
2021/01/02 08:25:37;;;;;;;180.57;79.58;;;;;;;-1.97;75.59;97034.53;1825549;76;26384;-83
2021/01/02 08:28:06;;;;;;;186.18;84.07;;;;;;;-1.89;75.73;97036.45;1836122;75;25663;-83
2021/01/02 08:30:34;;;;;;;186.50;81.67;;;;;;;-1.82;75.81;97041.53;1838090;75;27543;-83
2021/01/02 08:33:03;;;;;;;174.20;78.42;;;;;;;-1.71;75.79;97041.84;1835483;76;25761;-83
2021/01/02 08:35:45;;;;;;;183.22;83.62;;;;;;;-1.62;75.82;97044.94;1843827;76;25684;-83
2021/01/02 08:38:14;;;;;;;187.22;83.37;;;;;;;-1.52;75.87;97049.70;1830204;75;25739;-83
2021/01/02 08:40:49;;;;;;;179.60;77.80;;;;;;;-1.40;75.86;97041.92;1851645;76;25791;-85
2021/01/02 08:43:25;;;;;;;173.28;78.52;;;;;;;-1.27;75.84;97047.72;1835667;75;27658;-83
2021/01/02 08:48:47;;;;;;;126.22;63.58;;;;;;;-0.94;75.88;97050.74;1818794;76;34813;-82
2021/01/02 08:51:27;;;;;;;134.47;67.70;;;;;;;-0.88;75.79;97048.84;1776398;78;25366;-85
2021/01/02 08:53:55;;;;;;;141.82;69.25;;;;;;;-0.70;75.87;97052.33;1800907;78;27492;-85
2021/01/02 08:56:28;;;;;;;131.87;65.30;;;;;;;-0.53;75.83;97054.17;1789350;78;26281;-85
2021/01/02 08:58:57;;;;;;;135.10;67.10;;;;;;;-0.37;75.77;97042.90;1786866;78;25803;-83
2021/01/02 09:01:24;;;;;;;133.12;67.00;;;;;;;-0.16;75.58;97054.02;1814818;78;26006;-83
2021/01/02 09:03:51;;;;;;;136.12;67.03;;;;;;;0.13;75.52;97068.81;1803773;78;25790;-83
2021/01/02 09:06:25;;;;;;;142.87;67.05;;;;;;;0.50;75.33;97057.94;1784269;78;27683;-82
2021/01/02 09:09:07;;;;;;;131.32;64.45;;;;;;;0.72;74.82;97065.40;1787632;78;26151;-84
2021/01/02 09:11:50;;;;;;;123.10;62.43;;;;;;;0.92;74.84;97052.69;1776405;78;25731;-83
2021/01/02 09:14:19;;;;;;;115.60;54.95;;;;;;;1.21;74.79;97052.31;1776253;78;25843;-85
2021/01/02 09:17:06;;;;;;;120.55;56.25;;;;;;;1.48;74.63;97040.55;1794261;78;25914;-84
2021/01/02 09:19:33;;;;;;;94.65;49.50;;;;;;;1.74;74.48;97039.42;1809811;78;28444;-84
2021/01/02 09:22:01;;;;;;;82.53;43.70;;;;;;;1.99;74.09;97042.09;1810686;78;26036;-84
2021/01/02 09:24:28;;;;;;;90.07;43.85;;;;;;;2.27;73.88;97046.08;1803634;78;25747;-83
2021/01/02 09:26:56;;;;;;;81.25;41.20;;;;;;;2.46;73.46;97041.71;1803604;78;25669;-83
2021/01/02 09:29:23;;;;;;;85.25;45.45;;;;;;;2.70;73.30;97057.31;1786499;78;25812;-82
2021/01/02 09:31:50;;;;;;;76.92;41.15;;;;;;;2.91;72.99;97046.91;1807023;78;28647;-83
2021/01/02 09:34:18;;;;;;;71.60;39.85;;;;;;;3.12;72.69;97049.84;1791279;78;25667;-83
2021/01/02 09:36:52;;;;;;;63.38;35.00;;;;;;;3.29;72.48;97049.75;1780021;78;25684;-82
2021/01/02 09:39:22;;;;;;;53.13;29.63;;;;;;;3.48;72.30;97050.16;1776359;78;25665;-83
2021/01/02 09:41:49;;;;;;;60.55;32.88;;;;;;;3.70;72.17;97055.19;1795506;78;25780;-83
2021/01/02 09:44:17;;;;;;;65.32;35.00;;;;;;;3.96;72.07;97050.34;1788705;78;28356;-83
2021/01/02 09:46:45;;;;;;;61.00;33.15;;;;;;;4.23;71.66;97048.92;1803720;78;25615;-82
2021/01/02 09:49:12;;;;;;;86.50;41.50;;;;;;;4.49;71.47;97044.52;1806818;78;25688;-82
2021/01/02 09:51:40;;;;;;;87.08;44.03;;;;;;;4.81;71.10;97045.20;1797581;78;25800;-84
2021/01/02 09:54:07;;;;;;;92.33;49.42;;;;;;;5.03;70.91;97044.28;1798017;78;25720;-83
2021/01/02 09:56:35;;;;;;;92.20;51.08;;;;;;;5.29;70.81;97041.95;1793148;78;27510;-82
2021/01/02 09:59:03;;;;;;;95.28;53.55;;;;;;;5.53;70.43;97040.80;1793171;78;25594;-83
2021/01/02 10:01:30;;;;;;;89.15;48.00;;;;;;;5.85;70.27;97038.14;1814863;78;25722;-84
2021/01/02 10:03:58;;;;;;;114.17;58.85;;;;;;;6.12;69.75;97035.25;1825180;78;25763;-82
2021/01/02 10:06:25;;;;;;;146.43;68.17;;;;;;;6.22;69.08;97024.20;1810888;78;25795;-83
2021/01/02 10:08:52;;;;;;;146.45;66.92;;;;;;;6.25;68.63;97023.81;1817927;78;27541;-83
2021/01/02 10:11:20;;;;;;;132.12;63.10;;;;;;;6.43;68.57;97026.33;1811613;78;26184;-83
2021/01/02 10:13:47;;;;;;;111.85;57.10;;;;;;;6.66;68.33;97024.73;1820672;77;25636;-85
2021/01/02 10:16:19;;;;;;;104.78;51.65;;;;;;;6.82;67.59;97028.98;1814244;78;25335;-84
2021/01/02 10:18:46;;;;;;;78.55;40.83;;;;;;;6.84;67.60;97025.08;1816335;78;25746;-84
2021/01/02 10:21:14;;;;;;;84.45;42.58;;;;;;;7.05;67.70;97021.98;1819712;78;27475;-85
2021/01/02 10:23:41;;;;;;;79.47;41.28;;;;;;;7.26;67.32;97016.50;1817249;78;25710;-84
2021/01/02 10:26:09;;;;;;;68.95;36.50;;;;;;;7.42;67.08;97018.85;1808087;78;25729;-84
2021/01/02 10:28:36;;;;;;;70.37;36.55;;;;;;;7.64;66.87;97012.83;1811180;78;26013;-84
2021/01/02 10:31:04;;;;;;;62.88;33.65;;;;;;;7.81;66.47;97011.95;1805144;78;25670;-84
2021/01/02 10:33:31;;;;;;;59.18;32.63;;;;;;;8.03;66.20;97007.23;1792598;78;27489;-84
2021/01/02 10:35:58;;;;;;;40.20;22.20;;;;;;;8.27;65.85;96999.39;1792595;78;25719;-83
2021/01/02 10:38:26;;;;;;;51.10;27.85;;;;;;;8.40;64.95;96996.42;1795371;78;25785;-84
2021/01/02 10:40:53;;;;;;;57.98;31.82;;;;;;;8.44;64.92;96991.78;1806117;78;26087;-84
2021/01/02 10:43:21;;;;;;;55.33;30.90;;;;;;;8.52;64.72;96984.83;1794818;78;25803;-84
2021/01/02 10:45:48;;;;;;;50.50;29.07;;;;;;;8.60;64.51;96981.08;1798546;78;28554;-84
2021/01/02 10:48:16;;;;;;;50.17;28.77;;;;;;;8.62;63.99;96981.70;1818746;77;25660;-84
2021/01/02 10:50:43;;;;;;;55.43;31.20;;;;;;;8.64;63.97;96971.56;1802626;78;25841;-84
2021/01/02 10:53:11;;;;;;;62.90;35.83;;;;;;;8.72;63.95;96969.16;1768083;78;26213;-83
2021/01/02 10:55:38;;;;;;;59.08;35.83;;;;;;;8.80;63.56;96969.78;1781846;78;26024;-84
2021/01/02 10:58:06;;;;;;;87.55;42.38;;;;;;;8.76;62.95;96967.20;1767973;78;28476;-84
2021/01/02 11:00:33;;;;;;;86.35;43.90;;;;;;;8.69;62.75;96969.61;1784105;78;25349;-83
2021/01/02 11:03:00;;;;;;;73.47;37.48;;;;;;;8.55;62.83;96967.45;1791806;78;25690;-83
2021/01/02 11:05:28;;;;;;;67.27;34.35;;;;;;;8.61;63.08;96974.67;1777265;78;25791;-83
2021/01/02 11:07:55;;;;;;;78.83;40.28;;;;;;;8.65;62.42;96977.26;1778140;77;26457;-83
2021/01/02 11:10:22;;;;;;;112.72;52.27;;;;;;;8.56;62.37;96967.76;1807324;78;27528;-83
2021/01/02 11:12:50;;;;;;;93.27;44.95;;;;;;;8.51;62.52;96967.55;1775068;78;26174;-84
2021/01/02 11:15:18;;;;;;;79.47;39.05;;;;;;;8.60;62.55;96968.45;1792604;78;26230;-83
2021/01/02 11:17:45;;;;;;;60.65;31.73;;;;;;;8.69;62.51;96974.47;1793605;78;25731;-82
2021/01/02 11:20:14;;;;;;;51.73;28.35;;;;;;;8.62;62.28;96976.33;1803263;78;26264;-83
2021/01/02 11:22:41;;;;;;;44.03;25.43;;;;;;;8.62;62.30;96968.25;1768106;78;27496;-85
2021/01/02 11:25:11;;;;;;;49.27;25.60;;;;;;;8.50;61.87;96964.55;1767967;78;25839;-84
2021/01/02 11:27:38;;;;;;;48.85;25.85;;;;;;;8.38;61.93;96971.59;1767940;78;25715;-84
2021/01/02 11:30:07;;;;;;;50.95;27.02;;;;;;;8.37;62.21;96963.21;1773078;78;26127;-84
2021/01/02 11:32:34;;;;;;;50.80;26.45;;;;;;;8.39;61.98;96961.14;1792585;78;25801;-84
2021/01/02 11:35:02;;;;;;;54.13;29.10;;;;;;;8.45;61.93;96961.13;1771692;78;27479;-84
2021/01/02 11:37:29;;;;;;;56.70;28.65;;;;;;;8.40;61.93;96954.73;1779212;78;25731;-83
2021/01/02 11:39:57;;;;;;;64.27;31.68;;;;;;;8.38;61.87;96950.91;1792610;78;25869;-83
2021/01/02 11:42:24;;;;;;;56.68;29.98;;;;;;;8.46;61.88;96947.98;1783152;78;25786;-84
2021/01/02 11:44:51;;;;;;;54.60;28.70;;;;;;;8.51;61.66;96947.38;1805599;78;26092;-83